Tiempo atmosférico en la estación meteorológica de Bilbao Aeropuerto, Bizkaia (42 m.)



Fecha
DESCASC
Temp. máxima en grados centígrados (hora)
DESCASC
Temp. mínima en grados centígrados (hora)
DESCASC
Temp. media en grados centígrados
DESCASC
Racha de viento máxima en m/sg (hora)
DESCASC
Velocidad máxima media en intervalos de 10 minutos(hora)
DESCASC
Precipitaciones diarias en mm
DESCASC
Precipitaciones de 00:00 a 06:00 en mm
DESCASC
Precipitaciones de 06:00 a 12:00 en mm
DESCASC
Precipitaciones de 12:00 a 18:00 en mm
DESCASC
Precipitaciones de 18:00 a 24:00 en mm
DESCASC
17-09-2020 32.5 (16:40) 19.1 (05:20) 25.8 11.39 (23:30) 6.67 (23:40) 0 0 0 0 0
16-09-2020 30.2 (13:40) 17.2 (06:40) 23.7 7.78 (16:00) 5.28 (17:10) 0.4 0 0 0.4 0
15-09-2020 30.7 (13:10) 18.7 (08:20) 24.7 9.17 (00:10) 6.11 (17:50) 0.3 0.3 0 0 0
14-09-2020 36.6 (14:50) 20.2 (00:00) 28.4 11.67 (12:50) 7.22 (15:20) 0 0 0 0 0
13-09-2020 37.7 (17:20) 14.4 (00:00) 26.1 8.89 (18:30) 4.72 (12:30) 0 0 0 0 0
12-09-2020 28.5 (15:10) 14.4 (00:00) 21.4 8.89 (19:20) 4.44 (15:10) 0 0 0 0 0
11-09-2020 28.6 (15:40) 16.2 (00:00) 22.4 10.83 (16:50) 5.83 (16:00) 0 0 0 0 0
10-09-2020 27.3 (16:10) 14.7 (00:00) 21 7.78 (15:20) 4.44 (16:40) 0 0 0 0 0
09-09-2020 27.7 (13:40) 12.1 (00:00) 19.9 8.89 (16:10) 6.11 (16:10) 0 0 0 0 0
08-09-2020 25.6 (14:30) 12.1 (00:00) 18.9 12.78 (15:30) 6.94 (17:20) 0 0 0 0 0
07-09-2020 23.2 (14:20) 14.2 (23:59) 18.7 9.17 (14:40) 6.39 (15:10) 0.1 0 0.1 0 0
06-09-2020 21.9 (13:30) 17.6 (00:00) 19.8 8.89 (14:30) 6.11 (17:20) 0 0 0 0 0
05-09-2020 25.2 (15:50) 19.4 (00:00) 22.3 10.28 (16:20) 5.83 (16:20) 0 0 0 0 0
04-09-2020 36.6 (15:50) 14.2 (00:00) 25.4 9.17 (17:10) 6.11 (16:30) 0 0 0 0 0
03-09-2020 30.5 (16:00) 11 (00:00) 20.8 7.78 (13:20) 5.56 (17:20) 0 0 0 0 0
02-09-2020 25.3 (15:30) 13.4 (00:00) 19.3 8.89 (16:20) 5.28 (15:40) 0 0 0 0 0
01-09-2020 24.8 (13:10) 13.1 (00:00) 18.9 8.33 (16:50) 5.83 (17:00) 0 0 0 0 0
31-08-2020 25.1 (16:00) 10.5 (00:00) 17.8 8.89 (12:30) 5 (12:40) 0 0 0 0 0
30-08-2020 21.2 (16:30) 13.5 (00:00) 17.4 9.72 (14:20) 6.67 (14:20) 8.6 0 8.6 0 0
29-08-2020 19.8 (15:20) 13.9 (00:00) 16.8 14.44 (19:10) 8.06 (21:00) 16.8 0.3 5.7 1.7 9.1
28-08-2020 21.9 (00:00) 15.8 (00:00) 18.8 11.67 (06:20) 6.94 (06:20) 6.6 2.8 0.8 1.8 1.2
27-08-2020 30.8 (13:10) 17.8 (00:00) 24.3 10.83 (15:20) 7.78 (13:40) 0 0 0 0 0
26-08-2020 29.2 (13:20) 20.9 (00:00) 25.1 7.78 (14:00) 4.72 (14:10) 0 0 0 0 0
25-08-2020 28.1 (14:40) 15.9 (00:00) 22 9.17 (15:20) 6.11 (15:00) 0 0 0 0 0
24-08-2020 27.5 (16:10) 14.6 (00:00) 21.1 8.33 (16:30) 5 (17:10) 0 0 0 0 0
23-08-2020 25.6 (14:40) 15.1 (00:00) 20.4 8.33 (16:30) 5 (16:30) 0.1 0.1 0 0 0
22-08-2020 24.5 (13:20) 15.8 (00:00) 20.2 8.33 (15:50) 5.28 (13:20) 0.1 0 0 0 0.1
21-08-2020 24.7 (15:50) 20.4 (00:00) 22.6 6.67 (12:10) 4.44 (14:10) 0.3 0.3 0 0 0
20-08-2020 -- (--) -- (--) -- -- (--) -- (--) -- 0 0 -- 0
19-08-2020 37.7 (18:30) 20.7 (00:00) 29.2 13.33 (11:40) 7.5 (11:40) 0 0 0 0 0

Gráficas

Temp. máximas Temp. mínimas Temp. medias Precipitaciones Rachas de viento máximas Velocidades máximas media en intervalos de 10 minutos

Datos horarios

Fecha y hora oficial Temperatura (ºC) Velocidad del viento (km/h) Dirección del viento Racha (km/h) Dirección de racha Precipitación (mm) Presión (hPa) Tendencia (hPa) Humedad (%)
2020-09-17 23:00:00 23.7 6 Este 21 Sudeste 0 1005.3 0.3 62
2020-09-17 22:00:00 23.2 3 Este 8 Nordeste 0 1005.7 0.7 71
2020-09-17 21:00:00 25.5 3 Oeste 11 Oeste 0 1005.1 -- 64
2020-09-17 20:00:00 27.9 6 Este 15 Este 0 1005 -- 54
2020-09-17 19:00:00 29 9 Este 24 Este 0 1005 -- 50
2020-09-17 18:00:00 30.4 17 Este 30 Nordeste 0 1005.4 -- 45
2020-09-17 17:00:00 32.4 15 Este 22 Este 0 1005.6 -- 41
2020-09-17 16:00:00 31.9 13 Este 28 Nordeste 0 1006.2 -- 42
2020-09-17 15:00:00 29.7 11 Este 18 Este 0 1007.1 -- 51
2020-09-17 14:00:00 27.4 12 Este 17 Este 0 1008 -- 58
2020-09-17 13:00:00 25.1 8 Este 13 Este 0 1008.7 -- 73
2020-09-17 12:00:00 23.1 0 Calma 8 Oeste 0 1009.4 -- 80
2020-09-17 11:00:00 22.4 4 Sur 9 Este 0 1009.7 -- 81
2020-09-17 10:00:00 21.5 5 Este 11 Este 0 1009.6 -- 85
2020-09-17 09:00:00 20.2 5 Este 11 Sudeste 0 1009.8 -- 90
2020-09-17 08:00:00 19.6 6 Este 15 Este 0 1010 -- 93
2020-09-17 07:00:00 19.4 6 Sudeste 11 Sudeste 0 1010.1 -- 94
2020-09-17 06:00:00 19.1 7 Sudeste 13 Sudeste 0 1010.3 -- 97
2020-09-17 05:00:00 19.8 6 Este 11 Este 0 1010.8 -- 98
2020-09-17 04:00:00 19.6 6 Este 9 Este 0 1011.3 -- 97
2020-09-17 03:00:00 19.4 5 Este -- -- -- 1011.7 -- 96
2020-09-17 02:00:00 19.8 6 Este 8 Nordeste 0 1012.4 -- 96
2020-09-17 01:00:00 20.1 5 Este 8 Nordeste 0 1012.7 -- 95
2020-09-17 00:00:00 20.7 4 Este 8 Sudeste 0 1013.1 -- 94
2020-09-16 23:00:00 21.1 0 Calma 9 Noroeste 0 1013.2 -- 94
2020-09-16 22:00:00 21.7 5 Oeste 13 Oeste 0 1013.2 -- 94
2020-09-16 21:00:00 22.2 9 Oeste 18 Oeste 0 1012.6 -- 92
2020-09-16 20:00:00 23.1 13 Oeste 21 Oeste 0 1012.2 -- 87
2020-09-16 19:00:00 24.3 13 Oeste 21 Oeste 0 1011.9 -- 82
2020-09-16 18:00:00 25.6 14 Oeste 26 Oeste 0 1011.8 -- 74
2020-09-16 17:00:00 26.9 17 Oeste 26 Oeste 0 1012 -- 69
2020-09-16 16:00:00 28.2 18 Oeste 28 Oeste 0 1012.4 -- 64
2020-09-16 15:00:00 28.8 15 Oeste 24 Oeste 0 1012.8 -- 61
2020-09-16 14:00:00 29.2 14 Oeste 22 Oeste 0.4 1013.4 -- 58
2020-09-16 13:00:00 28.3 4 Nordeste 11 Este 0 1014.1 -- 50
2020-09-16 12:00:00 26.2 4 Este 9 Este 0 1014.6 -- 57
2020-09-16 11:00:00 23.1 4 Este 9 Este 0 1014.9 -- 70
2020-09-16 10:00:00 20 4 Nordeste 13 Este 0 1014.9 -- 84
2020-09-16 09:00:00 17.8 5 Este 15 Este 0 1014.9 -- 93
2020-09-16 08:00:00 17.4 8 Este 11 Este 0 1014.8 -- 95
2020-09-16 07:00:00 17.4 5 Este 11 Este 0 1014.6 -- 96
2020-09-16 06:00:00 17.4 8 Este 11 Este 0 1014.8 -- 96
2020-09-16 05:00:00 17.6 9 Este 9 Este 0 1015.1 -- 96
2020-09-16 04:00:00 17.8 3 Sudeste 8 Este 0 1015.6 -- 96
2020-09-16 03:00:00 18.2 6 Este -- -- -- 1015.5 -- 96
2020-09-16 02:00:00 18.7 5 Este 8 Este 0 1015.6 -- 95
2020-09-16 01:00:00 19.4 6 Este 9 Este 0 1015.6 -- 95
2020-09-16 00:00:00 20.1 5 Este -- -- 0 1015.6 -- 93
2020-09-15 23:00:00 20.8 4 Este 5 Sudeste 0 1015.8 -- 92
2020-09-15 22:00:00 21.8 0 Calma 9 Oeste 0 1015.6 -- 90
2020-09-15 21:00:00 22.2 8 Oeste 15 Oeste 0 1015.2 -- 89
2020-09-15 20:00:00 23 10 Oeste 21 Oeste 0 1014.9 -- 84
2020-09-15 19:00:00 24.3 15 Oeste 30 Oeste 0 1014.5 -- 79
2020-09-15 18:00:00 24.5 21 Oeste 32 Oeste 0 1014.3 -- 77
2020-09-15 17:00:00 27.3 21 Oeste 30 Oeste 0 1013.9 -- 60
2020-09-15 16:00:00 27.5 20 Oeste 32 Oeste 0 1013.9 -- 60
2020-09-15 15:00:00 28.1 19 Oeste 30 Oeste 0 1014.2 -- 59
2020-09-15 14:00:00 27.7 19 Oeste 28 Oeste 0 1014.3 -- 60
2020-09-15 13:00:00 30.4 5 Sudoeste 17 Sudeste 0 1014.6 -- 40
2020-09-15 12:00:00 28.7 11 Sur 26 Este 0 1015 -- 44
2020-09-15 11:00:00 25.9 13 Este 22 Este 0 1015.1 -- 58
2020-09-15 10:00:00 23.2 9 Sudeste 15 Sudeste 0 1015 -- 71
2020-09-15 09:00:00 19.6 8 Sudeste 15 Este 0 1014.9 -- 90
2020-09-15 08:00:00 18.9 13 Este 18 Este 0 1014.9 -- 93
2020-09-15 07:00:00 19.2 12 Este 17 Este 0 1014.9 -- 93
2020-09-15 06:00:00 20.1 15 Este 22 Este 0.3 1014.8 -- 89
2020-09-15 05:00:00 19.8 9 Este 15 Sudeste 0 1015.7 -- 89
2020-09-15 04:00:00 19.6 6 Sudeste 15 Este 0 1016.2 -- 90
2020-09-15 03:00:00 19.2 6 Este -- -- -- 1016 -- 89
2020-09-15 02:00:00 20.2 5 Este 11 Este 0 1015.7 -- 85
2020-09-15 01:00:00 21.2 2 Norte 33 Noroeste 0 1015.8 -- 80
2020-09-15 00:00:00 21.3 21 Noroeste 37 Noroeste 0 1015.7 -- 82
2020-09-14 23:00:00 20.9 0 Calma 11 Nordeste 0 1014.3 -- 75
2020-09-14 22:00:00 21.9 7 Este 11 Nordeste 0 1013.7 -- 70
2020-09-14 21:00:00 23.4 4 Este 11 Este 0 1013.4 -- 65
2020-09-14 20:00:00 24.1 4 Norte 15 Oeste 0 1013.8 -- 60
2020-09-14 19:00:00 25.2 8 Oeste 13 Oeste 0 1013.6 -- 55
2020-09-14 18:00:00 25.7 11 Noroeste 21 Noroeste 0 1014 -- 51
2020-09-14 17:00:00 26.8 10 Noroeste 32 Noroeste 0 1014.1 -- 49
2020-09-14 16:00:00 28.1 22 Noroeste 33 Oeste 0 1014 -- 48
2020-09-14 15:00:00 30.5 24 Oeste 35 Oeste 0 1013 -- 48
2020-09-14 14:00:00 35.4 15 Sur 41 Sur 0 1013.1 -- 25
2020-09-14 13:00:00 33.7 19 Sur 42 Sur 0 1013.7 -- 27
2020-09-14 12:00:00 32.1 16 Sur 32 Sur 0 1013.9 -- 30
2020-09-14 11:00:00 30.1 13 Sur 28 Sur 0 1014.3 -- 34
2020-09-14 10:00:00 28.5 13 Sur 24 Sur 0 1014.1 -- 36
2020-09-14 09:00:00 27 10 Sudeste 28 Sur 0 1013.7 -- 39
2020-09-14 08:00:00 27.4 19 Sur 32 Sur 0 1013.1 -- 36
2020-09-14 07:00:00 27.8 16 Sur 24 Sur 0 1012.7 -- 35
2020-09-14 06:00:00 28.3 11 Sur 24 Sur 0 1012.6 -- 35
2020-09-14 05:00:00 28.6 14 Sur 30 Sur 0 1012.6 -- 34
2020-09-14 04:00:00 29.5 18 Sur 30 Sudeste 0 1012.8 -- 30
2020-09-14 03:00:00 29.4 14 Sur 28 Sur 0 1013.1 -- 29
2020-09-14 02:00:00 30.1 14 Sur 32 Sur 0 1013 -- 27
2020-09-14 01:00:00 24.6 5 Sur 21 Sudeste 0 1013 -- 48
2020-09-14 00:00:00 21.4 4 Oeste 9 Oeste 0 1013.3 -- 79
2020-09-13 23:00:00 22 7 Oeste 9 Oeste 0 1013.6 -- 76
2020-09-13 22:00:00 24.2 0 Calma 11 Oeste 0 1013.4 -- 69
2020-09-13 21:00:00 25.1 10 Oeste 15 Oeste 0 1012.9 -- 63
2020-09-13 20:00:00 29.4 13 Oeste 22 Oeste 0 1012.1 -- 47
2020-09-13 19:00:00 35.4 8 Sudeste 32 Nordeste 0 1011.6 -- 32
2020-09-13 18:00:00 36.3 17 Nordeste 22 Nordeste 0 1011.7 -- 29
2020-09-13 17:00:00 37.4 9 Sudeste 26 Nordeste 0 1012.2 -- 24
2020-09-13 16:00:00 35.7 14 Este 28 Este 0 1012.9 -- 27
2020-09-13 15:00:00 34.9 13 Este 24 Este 0 1013.6 -- 30
2020-09-13 14:00:00 33.7 14 Sudeste 26 Sur 0 1014.3 -- 30
2020-09-13 13:00:00 31.6 12 Este 28 Este 0 1015 -- 39
2020-09-13 12:00:00 28.8 13 Este 22 Este 0 1015.9 -- 45
2020-09-13 11:00:00 25.1 14 Este 21 Este 0 1015.9 -- 61
2020-09-13 10:00:00 19.5 9 Sudeste 17 Sudeste 0 1016 -- 79
2020-09-13 09:00:00 16.3 4 Este 13 Este 0 1016.4 -- 89
2020-09-13 08:00:00 14.4 8 Este 15 Este 0 1016.1 -- 95
2020-09-13 07:00:00 14.7 8 Este 15 Este 0 1016 -- 95
2020-09-13 06:00:00 14.6 5 Nordeste 9 Este 0 1016.2 -- 95
2020-09-13 05:00:00 14.9 5 Este 13 Este 0 1016.5 -- 95
2020-09-13 04:00:00 15 8 Este 11 Este 0 1016.8 -- 94
2020-09-13 03:00:00 15.6 6 Nordeste 9 Nordeste 0 1017.2 -- 93
2020-09-13 02:00:00 16.3 8 Nordeste 9 Nordeste 0 1017.5 -- 91
2020-09-13 01:00:00 17.1 4 Este 9 Este 0 1017.7 -- 88
2020-09-13 00:00:00 17.9 2 Nordeste 8 Este 0 1017.7 -- 85
2020-09-12 23:00:00 18.6 2 Este 11 Este 0 1017.5 -- 82
2020-09-12 22:00:00 20 7 Sudeste 11 Sudeste 0 1017 -- 75
2020-09-12 21:00:00 22.1 5 Sudeste 17 Este 0 1016.3 -- 65
2020-09-12 20:00:00 24.7 10 Este 32 Este 0 1015.9 -- 53
2020-09-12 19:00:00 26.3 13 Nordeste 22 Nordeste 0 1015.5 -- 51
2020-09-12 18:00:00 27.2 13 Nordeste 22 Norte 0 1015.5 -- 51
2020-09-12 17:00:00 28 10 Nordeste 22 Norte 0 1015.4 -- 49
2020-09-12 16:00:00 28.1 13 Norte 26 Oeste 0 1015.5 -- 55
2020-09-12 15:00:00 28.3 15 Oeste 24 Noroeste 0 1015.4 -- 59
2020-09-12 14:00:00 27.4 7 Noroeste 15 Noroeste 0 1015.8 -- 57
2020-09-12 13:00:00 26.1 5 Este 13 Sudeste 0 1016.2 -- 61
2020-09-12 12:00:00 24.3 4 Norte 9 Norte 0 1016.2 -- 68
2020-09-12 11:00:00 20.9 3 Sur 11 Sudeste 0 1016.1 -- 77
2020-09-12 10:00:00 18.2 5 Este 11 Este 0 1016.1 -- 86
2020-09-12 09:00:00 15.5 9 Este 15 Nordeste 0 1015.7 -- 96
2020-09-12 08:00:00 14.6 6 Este 11 Este 0 1015.3 -- 97
2020-09-12 07:00:00 14.7 9 Este 13 Este 0 1014.7 -- 96
2020-09-12 06:00:00 14.9 6 Este 11 Sudeste 0 1014.5 -- 97
2020-09-12 05:00:00 15 6 Este 11 Este 0 1014.2 -- 95
2020-09-12 04:00:00 15.9 6 Este 9 Este 0 1014 -- 94
2020-09-12 03:00:00 16.2 6 Este 9 Este 0 1013.9 -- 93
2020-09-12 02:00:00 16.8 6 Este 11 Este 0 1013.7 -- 93
2020-09-12 01:00:00 17 9 Este -- -- 0 1013.7 -- 91
2020-09-12 00:00:00 18.4 6 Sudeste 11 Este 0 1013.6 -- 85
2020-09-11 23:00:00 19.9 8 Este 18 Este 0 1013.4 -- 81
2020-09-11 22:00:00 21.1 6 Nordeste 11 Nordeste 0 1013 -- 71
2020-09-11 21:00:00 21.7 7 Sudeste 18 Este 0 1012.3 -- 72
2020-09-11 20:00:00 24.6 13 Este 28 Nordeste 0 1011.8 -- 57
2020-09-11 19:00:00 26.1 12 Nordeste 26 Norte 0 1011.7 -- 55
2020-09-11 18:00:00 26.9 14 Nordeste 26 Nordeste 0 1011.8 -- 56
2020-09-11 17:00:00 27.5 18 Nordeste 39 Nordeste 0 1011.9 -- 53
2020-09-11 16:00:00 28 21 Nordeste 37 Nordeste 0 1011.9 -- 55
2020-09-11 15:00:00 27.6 15 Norte 26 Norte 0 1012 -- 59
2020-09-11 14:00:00 27.9 9 Nordeste 18 Nordeste 0 1012.2 -- 55
2020-09-11 13:00:00 26.2 5 Norte 17 Sudeste 0 1012.7 -- 59
2020-09-11 12:00:00 25 7 Sudeste 13 Sudeste 0 1013.1 -- 62
2020-09-11 11:00:00 22.1 5 Este 11 Este 0 1013.4 -- 74
2020-09-11 10:00:00 19.5 6 Este 11 Este 0 1013.6 -- 85
2020-09-11 09:00:00 17.4 4 Este 5 Este 0 1013.9 -- 93
2020-09-11 08:00:00 16.3 3 Nordeste 18 Nordeste 0 1013.4 -- 96
2020-09-11 07:00:00 16.9 4 Sudeste 5 Sudeste 0 1013.5 -- 96
2020-09-11 06:00:00 17.7 3 Norte 8 Este 0 1013.5 -- 95
2020-09-11 05:00:00 18 5 Este 5 Este 0 1013.8 -- 94
2020-09-11 04:00:00 17.9 3 Este 8 Este 0 1014.3 -- 94
2020-09-11 03:00:00 17.6 5 Este -- -- 0 1014.6 -- 95
2020-09-11 02:00:00 17.8 6 Este 8 Sudeste 0 1015.1 -- 94
2020-09-11 01:00:00 19 3 Nordeste 5 Este 0 1015.3 -- 92
2020-09-11 00:00:00 19.5 0 Calma 8 Este 0 1015.4 -- 90
2020-09-10 23:00:00 19.4 6 Este 9 Este 0 1015.4 -- 91
2020-09-10 22:00:00 20.3 4 Oeste 9 Noroeste 0 1015.3 -- 87
2020-09-10 21:00:00 20.9 7 Noroeste 13 Norte 0 1015 -- 85
2020-09-10 20:00:00 21.7 11 Noroeste 21 Oeste 0 1014.9 -- 82
2020-09-10 19:00:00 24 14 Oeste 22 Oeste 0 1015 -- 71
2020-09-10 18:00:00 25.2 14 Oeste 24 Oeste 0 1015.2 -- 63
2020-09-10 17:00:00 26.3 14 Noroeste 24 Oeste 0 1015.6 -- 56
2020-09-10 16:00:00 26.8 12 Oeste 28 Noroeste 0 1015.9 -- 47
2020-09-10 15:00:00 26.5 12 Noroeste 21 Oeste 0 1016.4 -- 46
2020-09-10 14:00:00 25.6 13 Oeste 24 Oeste 0 1017 -- 52
2020-09-10 13:00:00 25 12 Oeste 18 Oeste 0 1017.3 -- 60
2020-09-10 12:00:00 23.3 6 Oeste 17 Oeste 0 1017.7 -- 65
2020-09-10 11:00:00 20.9 2 Noroeste 11 Sudeste 0 1018 -- 66
2020-09-10 10:00:00 18.4 5 Este 11 Este 0 1017.9 -- 80
2020-09-10 09:00:00 15.7 8 Este 13 Este 0 1017.7 -- 91
2020-09-10 08:00:00 14.9 8 Este 11 Este 0 1017.4 -- 94
2020-09-10 07:00:00 15.4 5 Este 9 Este 0 1017.4 -- 94
2020-09-10 06:00:00 15.5 5 Este 8 Este 0 1017.7 -- 95
2020-09-10 05:00:00 16.2 4 Nordeste 9 Sudeste 0 1018 -- 94
2020-09-10 04:00:00 16 6 Este 9 Este 0 1018.2 -- 94
2020-09-10 03:00:00 16.1 4 Este 8 Este 0 1018.5 -- 94
2020-09-10 02:00:00 16.5 5 Este 8 Este 0 1018.9 -- 94
2020-09-10 01:00:00 16.7 4 Este 8 Este 0 1019.1 -- 93
2020-09-10 00:00:00 17.1 4 Sur 8 Este 0 1019.4 -- 90
2020-09-09 23:00:00 18.1 5 Este -- -- 0 1019.3 -- 87
2020-09-09 22:00:00 19.2 0 Calma 8 Este 0 1019 -- 82
2020-09-09 21:00:00 21.1 3 Este 13 Oeste 0 1017.8 -- 84
2020-09-09 20:00:00 22.7 10 Oeste 21 Oeste 0 1017.7 -- 79
2020-09-09 19:00:00 23.8 15 Oeste 26 Oeste 0 1017.5 -- 75
2020-09-09 18:00:00 24.6 18 Oeste 30 Oeste 0 1017.4 -- 71
2020-09-09 17:00:00 25.3 16 Oeste 32 Oeste 0 1017.4 -- 66
2020-09-09 16:00:00 26 20 Oeste 28 Oeste 0 1017.4 -- 61
2020-09-09 15:00:00 26.3 17 Oeste 30 Oeste 0 1017.5 -- 58
2020-09-09 14:00:00 26.8 18 Oeste 28 Oeste 0 1017.4 -- 56
2020-09-09 13:00:00 26.3 4 Norte 9 Norte 0 1017.8 -- 40
2020-09-09 12:00:00 23.7 3 Nordeste 13 Este 0 1018.3 -- 52
2020-09-09 11:00:00 20.9 8 Este 15 Sudeste 0 1018.7 -- 63
2020-09-09 10:00:00 17.3 11 Sudeste 15 Sudeste 0 1018.7 -- 77
2020-09-09 09:00:00 14.1 9 Este 15 Este 0 1018.5 -- 87
2020-09-09 08:00:00 12.5 7 Este 11 Este 0 1018.2 -- 92
2020-09-09 07:00:00 12.8 7 Este 13 Nordeste 0 1018 -- 92
2020-09-09 06:00:00 12.8 6 Este 9 Este 0 1018.1 -- 92
2020-09-09 05:00:00 12.8 0 Calma 13 Este 0 1017.9 -- 92
2020-09-09 04:00:00 13.3 7 Este 13 Este 0 1018.4 -- 91
2020-09-09 03:00:00 13.8 7 Este 9 Este 0 1018.6 -- 89
2020-09-09 02:00:00 13.9 6 Este 9 Este 0 1019.1 -- 89
2020-09-09 01:00:00 14.8 6 Este 9 Este 0 1019.4 -- 86
2020-09-09 00:00:00 15.6 0 Calma 8 Este 0 1019.7 -- 82
2020-09-08 23:00:00 17 5 Este 8 Este 0 1019.6 -- 76
2020-09-08 22:00:00 18.8 3 Este 17 Este 0 1019.6 -- 67
2020-09-08 21:00:00 19.9 9 Este 24 Este 0 1019.2 -- 61
2020-09-08 20:00:00 21.9 13 Este 24 Este 0 1018.8 -- 50
2020-09-08 19:00:00 23.3 17 Nordeste 28 Este 0 1018.6 -- 48
2020-09-08 18:00:00 24.1 22 Nordeste 42 Nordeste 0 1018.7 -- 40
2020-09-08 17:00:00 25 21 Nordeste 32 Nordeste 0 1019.1 -- 37
2020-09-08 16:00:00 25.1 23 Nordeste 46 Nordeste 0 1019.5 -- 37
2020-09-08 15:00:00 25.1 18 Nordeste 33 Nordeste 0 1020 -- 37
2020-09-08 14:00:00 25.3 22 Nordeste 32 Nordeste 0 1020.7 -- 37
2020-09-08 13:00:00 23.8 15 Nordeste 32 Norte 0 1021.3 -- 46
2020-09-08 12:00:00 22.3 4 Este 9 Este 0 1021.9 -- 58
2020-09-08 11:00:00 19 5 Nordeste 13 Nordeste 0 1022.3 -- 70
2020-09-08 10:00:00 16.6 8 Este 18 Este 0 1022.2 -- 80
2020-09-08 09:00:00 13.7 6 Este 13 Este 0 1022.2 -- 90
2020-09-08 08:00:00 12.1 9 Este 13 Este 0 1021.7 -- 94
2020-09-08 07:00:00 12.8 9 Este 13 Este 0 1021.5 -- 94
2020-09-08 06:00:00 13.4 8 Este 13 Este 0 1021.3 -- 92
2020-09-08 05:00:00 14 6 Este 13 Este 0 1021.6 -- 92
2020-09-08 04:00:00 12.9 4 Este 8 Este 0 1021.6 -- 92
2020-09-08 03:00:00 12.9 4 Este 9 Este 0 1021.9 -- 91
2020-09-08 02:00:00 13 7 Este 9 Este 0 1022.3 -- 90
2020-09-08 01:00:00 13.6 7 Este 9 Este 0 1022.7 -- 89
2020-09-08 00:00:00 14.5 5 Este 8 Este 0 1022.8 -- 84
2020-09-07 23:00:00 14.9 4 Este 8 Sudeste 0 1022.8 -- 83
2020-09-07 22:00:00 16.4 2 Sudeste 11 Nordeste 0 1022.4 -- 74
2020-09-07 21:00:00 18.4 5 Nordeste 17 Norte 0 1021.9 -- 65
2020-09-07 20:00:00 20 12 Norte 22 Norte 0 1021.6 -- 57
2020-09-07 19:00:00 21 12 Norte 24 Nordeste 0 1021.3 -- 54
2020-09-07 18:00:00 21.2 16 Nordeste 30 Norte 0 1021.2 -- 51
2020-09-07 17:00:00 22.1 17 Nordeste 32 Nordeste 0 1020.7 -- 46
2020-09-07 16:00:00 22.4 19 Nordeste 33 Nordeste 0 1020.9 -- 42
2020-09-07 15:00:00 22.4 20 Nordeste 33 Norte 0 1021 -- 43
2020-09-07 14:00:00 22.2 15 Nordeste 32 Nordeste 0 1020.8 -- 46
2020-09-07 13:00:00 21.1 12 Norte 24 Este 0 1020.9 -- 56
2020-09-07 12:00:00 20.1 11 Este 21 Este 0 1021.2 -- 62
2020-09-07 11:00:00 18.6 4 Sudeste 9 Sudeste 0 1021.1 -- 75
2020-09-07 10:00:00 16.5 2 Oeste 18 Nordeste 0.1 1020.5 -- 88
2020-09-07 09:00:00 15.7 5 Norte 8 Norte 0 1019.9 -- 90
2020-09-07 08:00:00 15.6 0 Calma 8 Noroeste 0 1019.5 -- 89
2020-09-07 07:00:00 15.8 3 Noroeste 13 Nordeste 0 1019.1 -- 88
2020-09-07 06:00:00 16.2 14 Nordeste 24 Norte 0 1019.1 -- 86
2020-09-07 05:00:00 15.8 5 Este 9 Este 0 1018.6 -- 86
2020-09-07 04:00:00 15.9 2 Este 8 Este 0 1019 -- 86
2020-09-07 03:00:00 16.4 3 Sudeste 5 Oeste 0 1019.2 -- 83
2020-09-07 02:00:00 16.6 2 Sudoeste 4 Sudoeste 0 1019.5 -- 82
2020-09-07 01:00:00 17.1 0 Calma 4 Sur 0 1019.6 -- 79
2020-09-07 00:00:00 17.7 0 Calma 13 Este 0 1019.6 -- 73
2020-09-06 23:00:00 17.9 9 Nordeste 21 Nordeste 0 1019.4 -- 74
2020-09-06 22:00:00 18.5 4 Norte 15 Nordeste 0 1019.2 -- 68
2020-09-06 21:00:00 18.8 4 Norte 15 Norte 0 1018.7 -- 65
2020-09-06 20:00:00 19.3 9 Norte 15 Norte 0 1018.5 -- 64
2020-09-06 19:00:00 19.2 8 Noroeste 13 Noroeste 0 1018.5 -- 71
2020-09-06 18:00:00 18.6 9 Norte 30 Noroeste 0 1018.4 -- 77
2020-09-06 17:00:00 20.9 18 Noroeste 28 Noroeste 0 1018.2 -- 62
2020-09-06 16:00:00 20.8 18 Noroeste 30 Noroeste 0 1018.4 -- 63
2020-09-06 15:00:00 20.9 17 Noroeste 32 Oeste 0 1018.5 -- 63
2020-09-06 14:00:00 20.8 14 Oeste 26 Noroeste 0 1018.9 -- 63
2020-09-06 13:00:00 21.3 16 Noroeste 24 Noroeste 0 1019 -- 57
2020-09-06 12:00:00 20.7 15 Oeste 24 Noroeste 0 1019.2 -- 59
2020-09-06 11:00:00 18.9 8 Oeste 13 Sudoeste 0 1019.2 -- 72
2020-09-06 10:00:00 18.1 5 Sudoeste 8 Sudoeste 0 1019 -- 75
2020-09-06 09:00:00 17.6 2 Noroeste 9 Norte 0 1019 -- 80
2020-09-06 08:00:00 17.8 5 Oeste 9 Oeste 0 1018.7 -- 76
2020-09-06 07:00:00 18.1 6 Oeste 11 Noroeste 0 1018.6 -- 72
2020-09-06 06:00:00 18.3 6 Sudoeste 9 Oeste 0 1018.9 -- 75
2020-09-06 05:00:00 18.5 7 Noroeste 17 Norte 0 1018.9 -- 72
2020-09-06 04:00:00 18.9 11 Norte 18 Norte 0 1019.1 -- 71
2020-09-06 03:00:00 19.1 4 Norte 13 Norte 0 1019.4 -- 74
2020-09-06 02:00:00 19.3 10 Nordeste 18 Norte 0 1019.6 -- 75
2020-09-06 01:00:00 19.4 7 Nordeste 11 Nordeste 0 1019.7 -- 78
2020-09-06 00:00:00 19.4 8 Norte 11 Nordeste 0 1019.9 -- 78
2020-09-05 23:00:00 19.8 0 Calma 9 Norte 0 1020 -- 74
2020-09-05 22:00:00 19.8 3 Nordeste 15 Nordeste 0 1019.9 -- 73
2020-09-05 21:00:00 20.1 10 Nordeste 22 Nordeste 0 1019.4 -- 72
2020-09-05 20:00:00 20.6 16 Norte 33 Norte 0 1019 -- 75
2020-09-05 19:00:00 21.2 11 Norte 26 Norte 0 1019 -- 74
2020-09-05 18:00:00 21.8 12 Norte 30 Norte 0 1019.1 -- 73
2020-09-05 17:00:00 22.2 16 Norte 37 Norte 0 1019.2 -- 73
2020-09-05 16:00:00 23.8 18 Noroeste 32 Norte 0 1019.6 -- 62
2020-09-05 15:00:00 24.2 16 Noroeste 30 Norte 0 1019.9 -- 60
2020-09-05 14:00:00 24.2 14 Noroeste 26 Noroeste 0 1019.8 -- 61
2020-09-05 13:00:00 22.9 7 Noroeste 26 Oeste 0 1020.2 -- 70
2020-09-05 12:00:00 23.7 14 Noroeste 28 Norte 0 1020.2 -- 64
2020-09-05 11:00:00 22.5 15 Noroeste 26 Noroeste 0 1019.8 -- 70
2020-09-05 10:00:00 21.6 13 Noroeste 21 Noroeste 0 1019.6 -- 78
2020-09-05 09:00:00 20.9 8 Noroeste 13 Noroeste 0 1019.4 -- 84
2020-09-05 08:00:00 20.4 5 Oeste 11 Noroeste 0 1018.9 -- 85
2020-09-05 07:00:00 20.3 8 Oeste 13 Oeste 0 1018.5 -- 83
2020-09-05 06:00:00 19.9 5 Oeste 8 Oeste 0 1018.3 -- 87
2020-09-05 05:00:00 19.4 2 Oeste 9 Noroeste 0 1018.2 -- 91
2020-09-05 04:00:00 20.2 5 Norte 9 Norte 0 1018 -- 86
2020-09-05 03:00:00 20.6 0 Calma 18 Noroeste 0 1017.9 -- 91
2020-09-05 02:00:00 21 14 Noroeste 28 Noroeste 0 1017.8 -- 89
2020-09-05 01:00:00 21.2 12 Noroeste 22 Noroeste 0 1017.5 -- 92
2020-09-05 00:00:00 21.5 2 Oeste 15 Noroeste 0 1017.1 -- 94
2020-09-04 23:00:00 21 5 Oeste 8 Oeste 0 1016.6 -- 92
2020-09-04 22:00:00 21.9 0 Calma 8 Noroeste 0 1015.9 -- 88
2020-09-04 21:00:00 23 5 Oeste 18 Oeste 0 1015.2 -- 84
2020-09-04 20:00:00 24.5 14 Oeste 28 Oeste 0 1014.8 -- 81
2020-09-04 19:00:00 25.8 21 Oeste 28 Oeste 0 1014.4 -- 75
2020-09-04 18:00:00 27.6 19 Oeste 33 Oeste 0 1013.9 -- 61
2020-09-04 17:00:00 30.8 18 Oeste 30 Oeste 0 1013.7 -- 47
2020-09-04 16:00:00 36.1 7 Norte 15 Noroeste 0 1013.8 -- 24
2020-09-04 15:00:00 34.8 8 Sudeste 24 Sur 0 1014.5 -- 27
2020-09-04 14:00:00 33.6 16 Sudeste 30 Sudeste 0 1015.2 -- 29
2020-09-04 13:00:00 31.9 15 Sur 26 Sur 0 1016.1 -- 32
2020-09-04 12:00:00 29.5 12 Este 21 Sudeste 0 1016.6 -- 40
2020-09-04 11:00:00 26.7 11 Sudeste 18 Sudeste 0 1016.8 -- 44
2020-09-04 10:00:00 20.9 3 Este 11 Este 0 1016.6 -- 71
2020-09-04 09:00:00 16.5 2 Nordeste 9 Este 0 1016.9 -- 85
2020-09-04 08:00:00 14.7 4 Nordeste 9 Este 0 1016.7 -- 92
2020-09-04 07:00:00 14.4 5 Nordeste 13 Este 0 1016.5 -- 95
2020-09-04 06:00:00 14.3 10 Este 13 Este 0 1016.6 -- 94
2020-09-04 05:00:00 -- 8 Este 11 Este 0 1017 -- --
2020-09-04 04:00:00 14.9 9 Este 13 Este 0 1017.2 -- 94
2020-09-04 03:00:00 15.1 6 Sudeste -- -- 0 1017.6 -- 93
2020-09-04 02:00:00 15.9 6 Este 9 Este 0 1017.9 -- 92
2020-09-04 01:00:00 16.3 7 Este 11 Este 0 1018 -- 90
2020-09-04 00:00:00 17 6 Este 9 Este 0 1018 -- 87
2020-09-03 23:00:00 18.3 7 Este 13 Este 0 1017.8 -- 83
2020-09-03 22:00:00 20.4 2 Nordeste 9 Oeste 0 1017.2 -- 75
2020-09-03 21:00:00 22.8 5 Oeste 13 Oeste 0 1016.6 -- 64
2020-09-03 20:00:00 25.6 10 Oeste 17 Oeste 0 1016 -- 51
2020-09-03 19:00:00 27.2 12 Oeste 22 Noroeste 0 1015.8 -- 44
2020-09-03 18:00:00 27.7 17 Oeste 28 Oeste 0 1015.6 -- 44
2020-09-03 17:00:00 28.6 17 Oeste 26 Oeste 0 1015.4 -- 43
2020-09-03 16:00:00 30.2 8 Este 17 Nordeste 0 1015.6 -- 35
2020-09-03 15:00:00 29.1 8 Nordeste 21 Este 0 1016.1 -- 34
2020-09-03 14:00:00 27.3 13 Este 28 Nordeste 0 1016.4 -- 39
2020-09-03 13:00:00 25.6 12 Este 22 Este 0 1016.8 -- 45
2020-09-03 12:00:00 23.3 13 Este 18 Este 0 1017.1 -- 51
2020-09-03 11:00:00 20.6 10 Sudeste 17 Sudeste 0 1017.2 -- 61
2020-09-03 10:00:00 16.7 10 Sudeste 18 Este 0 1017.5 -- 74
2020-09-03 09:00:00 13.5 5 Este 11 Nordeste 0 1017.4 -- 87
2020-09-03 08:00:00 11.2 5 Este 8 Este 0 1017.3 -- 91
2020-09-03 07:00:00 11.5 3 Nordeste 9 Nordeste 0 1017 -- 92
2020-09-03 06:00:00 12 3 Este 8 Este 0 1017 -- 89
2020-09-03 05:00:00 12.3 4 Nordeste 5 Nordeste 0 1017.1 -- 88
2020-09-03 04:00:00 12.5 4 Nordeste 9 Este 0 1017.2 -- 88
2020-09-03 03:00:00 12.8 5 Este 9 Este 0 1017.2 -- 87
2020-09-03 02:00:00 13.4 6 Nordeste 8 Nordeste 0 1017.4 -- 85
2020-09-03 01:00:00 13.8 8 Este 9 Este 0 1017.5 -- 82
2020-09-03 00:00:00 15.1 7 Este -- -- 0 1017.3 -- 76
2020-09-02 23:00:00 16.9 4 Este 13 Este 0 1017.2 -- 66
2020-09-02 22:00:00 18.5 10 Este 17 Este 0 1017.1 -- 59
2020-09-02 21:00:00 20.1 7 Este 18 Este 0 1016.3 -- 51
2020-09-02 20:00:00 22.5 10 Este 32 Este 0 1015.9 -- 41
2020-09-02 19:00:00 23.9 13 Nordeste 28 Este 0 1015.3 -- 41
2020-09-02 18:00:00 24.4 17 Norte 30 Nordeste 0 1015.1 -- 38
2020-09-02 17:00:00 24.8 15 Nordeste 32 Norte 0 1014.9 -- 43
2020-09-02 16:00:00 24.8 18 Norte 28 Nordeste 0 1014.9 -- 44
2020-09-02 15:00:00 23.6 10 Norte 26 Norte 0 1015 -- 50
2020-09-02 14:00:00 24.5 9 Norte 26 Norte 0 1015 -- 50
2020-09-02 13:00:00 22.8 12 Norte 18 Norte 0 1015.4 -- 58
2020-09-02 12:00:00 22.4 7 Norte 15 Norte 0 1015.6 -- 65
2020-09-02 11:00:00 20.7 4 Norte 9 Este 0 1015.6 -- 73
2020-09-02 10:00:00 18.3 7 Este 9 Este 0 1015.3 -- 83
2020-09-02 09:00:00 15.1 6 Este 15 Este 0 1015.2 -- 94
2020-09-02 08:00:00 13.7 8 Este 15 Nordeste 0 1014.9 -- 96
2020-09-02 07:00:00 13.9 7 Este 11 Este 0 1014.6 -- 96
2020-09-02 06:00:00 14.2 9 Este 13 Este 0 1014.2 -- 96
2020-09-02 05:00:00 14.5 7 Este 11 Este 0 1014 -- 96
2020-09-02 04:00:00 14.8 7 Este 9 Este 0 1014 -- 95
2020-09-02 03:00:00 15.7 4 Este 8 Este 0 1014 -- 94
2020-09-02 02:00:00 16.2 6 Este 11 Este 0 1014.1 -- 93
2020-09-02 01:00:00 16.9 6 Este 11 Este 0 1014 -- 91
2020-09-02 00:00:00 17.9 5 Este 8 Este 0 1014 -- 88
2020-09-01 23:00:00 18.4 4 Este 8 Este 0 1013.7 -- 83
2020-09-01 22:00:00 19.3 0 Calma 9 Noroeste 0 1013.4 -- 79
2020-09-01 21:00:00 20.1 7 Noroeste 18 Noroeste 0 1012.8 -- 74
2020-09-01 20:00:00 21.9 13 Noroeste 24 Noroeste 0 1012.3 -- 66
2020-09-01 19:00:00 22.6 15 Noroeste 26 Noroeste 0 1012 -- 63
2020-09-01 18:00:00 22.9 18 Noroeste 30 Noroeste 0 1011.6 -- 61
2020-09-01 17:00:00 24 21 Norte 30 Norte 0 1011.4 -- 56
2020-09-01 16:00:00 24.1 17 Noroeste 26 Noroeste 0 1011.4 -- 58
2020-09-01 15:00:00 24.4 14 Noroeste 24 Oeste 0 1011.6 -- 54
2020-09-01 14:00:00 23.8 10 Noroeste 22 Norte 0 1011.7 -- 58
2020-09-01 13:00:00 24.1 10 Norte 18 Norte 0 1011.7 -- 45
2020-09-01 12:00:00 22.8 4 Norte 9 Nordeste 0 1012.1 -- 49
2020-09-01 11:00:00 20.1 3 Nordeste 9 Sudeste 0 1012.2 -- 59
2020-09-01 10:00:00 17 5 Este 11 Este 0 1012.2 -- 72
2020-09-01 09:00:00 13.8 6 Este 9 Este 0 1012.1 -- 87
2020-09-01 08:00:00 13.1 6 Este 11 Este 0 1011.8 -- 90
2020-09-01 07:00:00 13.6 8 Este 9 Nordeste 0 1011.7 -- 88
2020-09-01 06:00:00 13.7 5 Este 11 Este 0 1011.6 -- 90
2020-09-01 05:00:00 13.9 6 Este 9 Este 0 1012 -- 89
2020-09-01 04:00:00 14.2 4 Este 8 Este 0 1012.4 -- 90
2020-09-01 03:00:00 14.4 5 Este 11 Sudeste 0 1012.5 -- 90
2020-09-01 02:00:00 14.8 6 Este 9 Sudeste 0 1013.1 -- 88
2020-09-01 01:00:00 15.6 0 Calma 11 Este 0 1013.1 -- 86
2020-09-01 00:00:00 15.7 9 Este 11 Este 0 1013 -- 87
2020-08-31 23:00:00 16.7 7 Este 15 Este 0 1013.4 -- 82
2020-08-31 22:00:00 17.8 8 Este 13 Este 0 1013.5 -- 76
2020-08-31 21:00:00 19.3 6 Este 18 Nordeste 0 1013 -- 70
2020-08-31 20:00:00 21.1 9 Nordeste 21 Nordeste 0 1013.1 -- 62
2020-08-31 19:00:00 23 10 Nordeste 22 Nordeste 0 1013.2 -- 54
2020-08-31 18:00:00 23.4 13 Este 22 Este 0 1013.5 -- 52
2020-08-31 17:00:00 24.1 13 Este 24 Este 0 1013.7 -- 47
2020-08-31 16:00:00 24.9 8 Este 24 Nordeste 0 1014.1 -- 41
2020-08-31 15:00:00 24.2 8 Nordeste 22 Este 0 1014.9 -- 42
2020-08-31 14:00:00 23 11 Este 26 Este 0 1015.4 -- 47
2020-08-31 13:00:00 21.8 16 Este 32 Nordeste 0 1015.5 -- 52
2020-08-31 12:00:00 20.4 12 Este 21 Este 0 1016.1 -- 59
2020-08-31 11:00:00 17.9 10 Este 15 Este 0 1016.6 -- 71
2020-08-31 10:00:00 14.6 10 Este 15 Este 0 1016.9 -- 84
2020-08-31 09:00:00 11.7 9 Sudeste 13 Sudeste 0 1016.8 -- 98
2020-08-31 08:00:00 10.8 8 Sudeste 17 Sudeste 0 1016.9 -- 99
2020-08-31 07:00:00 10.9 6 Este 13 Este 0 1016.7 -- 99
2020-08-31 06:00:00 10.9 10 Este 15 Este 0 1016.8 -- 99
2020-08-31 05:00:00 10.7 5 Sudeste 13 Este 0 1017.3 -- 98
2020-08-31 04:00:00 11.1 6 Este 11 Este 0 1017.4 -- 97
2020-08-31 03:00:00 11.7 9 Este 11 Este 0 1017.7 -- 97
2020-08-31 02:00:00 12.3 6 Este 11 Este 0 1018 -- 96
2020-08-31 01:00:00 13.2 8 Este 13 Este 0 1017.9 -- 94
2020-08-31 00:00:00 14.4 10 Este 11 Este 0 1017.7 -- 90
2020-08-30 23:00:00 15.3 3 Sudeste 9 Nordeste 0 1017.4 -- 88
2020-08-30 22:00:00 16 6 Nordeste 11 Nordeste 0 1016.9 -- 81
2020-08-30 21:00:00 17.1 2 Oeste 15 Noroeste 0 1016.2 -- 69
2020-08-30 20:00:00 18.6 12 Noroeste 32 Noroeste 0 1015.8 -- 61
2020-08-30 19:00:00 20 20 Noroeste 32 Oeste 0 1015.4 -- 58
2020-08-30 18:00:00 20.2 19 Noroeste 32 Noroeste 0 1015.1 -- 58
2020-08-30 17:00:00 19.4 18 Noroeste 30 Norte 0 1014.8 -- 64
2020-08-30 16:00:00 19.8 12 Oeste 21 Oeste 0 1014.8 -- 57
2020-08-30 15:00:00 17.4 10 Noroeste 35 Noroeste 0 1015.1 -- 80
2020-08-30 14:00:00 18.7 7 Sudoeste 13 Oeste 0 1014.3 -- 71
2020-08-30 13:00:00 17.7 5 Oeste 13 Sudoeste 0 1014.4 -- 74
2020-08-30 12:00:00 14.8 9 Este 13 Este 2.1 1014.3 -- 93
2020-08-30 11:00:00 14.7 3 Sur 15 Sudeste 0.2 1013.8 -- 89
2020-08-30 10:00:00 14.2 11 Sudeste 17 Este 1.3 1013 -- 94
2020-08-30 09:00:00 13.7 3 Oeste 22 Oeste 1 1012.4 -- 87
2020-08-30 08:00:00 14 11 Noroeste 26 Noroeste 4 1011.7 -- 87
2020-08-30 07:00:00 15.3 14 Oeste 28 Oeste 0 1010.9 -- 76
2020-08-30 06:00:00 15.6 8 Oeste 18 Oeste 0 1010.7 -- 75
2020-08-30 05:00:00 15.5 7 Oeste 18 Oeste 0 1010.5 -- 74
2020-08-30 04:00:00 16.5 14 Noroeste 30 Norte 0 1010.4 -- 62
2020-08-30 03:00:00 16.7 12 Oeste 28 Noroeste 0 1010.5 -- 64
2020-08-30 02:00:00 16.8 13 Noroeste 24 Noroeste 0 1010.5 -- 65
2020-08-30 01:00:00 16.8 12 Noroeste 24 Noroeste 0 1010.6 -- 63
2020-08-30 00:00:00 17 8 Noroeste 28 Noroeste 0 1010.4 -- 66
2020-08-29 23:00:00 16.6 12 Noroeste 26 Noroeste 0 1010 -- 71
2020-08-29 22:00:00 15.7 17 Noroeste 41 Noroeste 0 1009.4 -- 70
2020-08-29 21:00:00 16.1 29 Noroeste 45 Oeste 1.8 1008.6 -- 80
2020-08-29 20:00:00 15.9 16 Noroeste 52 Noroeste 3.6 1008.1 -- 93
2020-08-29 19:00:00 -- -- -- 41 Noroeste 3.7 -- -- --
2020-08-29 18:00:00 16.7 13 Noroeste 35 Noroeste 0.9 1006.6 -- 91
2020-08-29 17:00:00 19.2 22 Noroeste 41 Oeste 0.4 1006.1 -- 72
2020-08-29 16:00:00 18.6 22 Oeste 39 Noroeste 0.3 1005.8 -- 77
2020-08-29 15:00:00 19 19 Oeste 33 Noroeste 0 1006.1 -- 76
2020-08-29 14:00:00 18.1 23 Oeste 39 Oeste 0.1 1005.6 -- 77
2020-08-29 13:00:00 18.8 17 Noroeste 30 Oeste 0 1005.5 -- 78
2020-08-29 12:00:00 16.6 8 Noroeste 17 Noroeste 1.6 1005.6 -- 90
2020-08-29 11:00:00 17.3 8 Oeste 17 Noroeste 0 1005.6 -- 79
2020-08-29 10:00:00 15.4 4 Sudeste 11 Este 1.5 1005.6 -- 94
2020-08-29 09:00:00 15.1 5 Este 11 Este 0.1 1005.3 -- 97
2020-08-29 08:00:00 14.1 4 Este 9 Nordeste 0.2 1005.3 -- 96
2020-08-29 07:00:00 14.8 6 Oeste 21 Oeste 2.3 1005.4 -- 94
2020-08-29 06:00:00 15.2 5 Noroeste 24 Oeste 0.3 1005.3 -- 89
2020-08-29 05:00:00 15.5 14 Oeste 41 Oeste 0 1005.3 -- 85
2020-08-29 04:00:00 16.8 12 Oeste 28 Oeste 0 1005.6 -- 73
2020-08-29 03:00:00 16.7 12 Oeste 30 Oeste 0 1006.2 -- 74
2020-08-29 02:00:00 15.3 6 Sudeste 9 Sudeste 0 1006.5 -- 96
2020-08-29 01:00:00 15.5 2 Este 13 Sudeste 0 1006.8 -- 95
2020-08-29 00:00:00 15.9 9 Este 13 Este 0 1006.8 -- 97
2020-08-28 23:00:00 16.1 8 Sudeste 17 Nordeste 0 1007.1 -- 96
2020-08-28 22:00:00 16.6 5 Este 17 Sudeste 1 1007.6 -- 92
2020-08-28 21:00:00 17.2 9 Este 15 Nordeste 0 1007.3 -- 91
2020-08-28 20:00:00 17.5 9 Noroeste 22 Oeste 0 1007.2 -- 83
2020-08-28 19:00:00 17.3 8 Norte 28 Noroeste 0.2 1007.5 -- 89
2020-08-28 18:00:00 17.5 7 Noroeste 30 Noroeste 0.3 1007.5 -- 89
2020-08-28 17:00:00 18.5 5 Noroeste 13 Noroeste 0.6 1007.8 -- 86
2020-08-28 16:00:00 17.5 10 Noroeste 28 Norte 0 1008.3 -- 85
2020-08-28 15:00:00 17 11 Oeste 35 Noroeste 0.7 1009 -- 92
2020-08-28 14:00:00 17.8 17 Oeste 42 Noroeste 0.2 1009.2 -- 87
2020-08-28 13:00:00 19.3 17 Noroeste 37 Noroeste 0 1009.3 -- 76
2020-08-28 12:00:00 18.6 13 Oeste 22 Oeste 0 1009.4 -- 81
2020-08-28 11:00:00 18 12 Oeste 35 Oeste 0 1009.7 -- 89
2020-08-28 10:00:00 18.6 12 Oeste 22 Oeste 0 1009.5 -- 84
2020-08-28 09:00:00 18.1 13 Oeste 18 Oeste 0 1009.9 -- 88
2020-08-28 08:00:00 18 10 Noroeste 32 Noroeste 0.1 1009.7 -- 92
2020-08-28 07:00:00 18.1 14 Oeste 42 Noroeste 0.7 1009.6 -- 97
2020-08-28 06:00:00 19.1 21 Oeste 37 Noroeste 0.8 1009.4 -- 97
2020-08-28 05:00:00 20 21 Oeste -- -- 2 1009.4 -- 96
2020-08-28 04:00:00 21.2 5 Oeste 9 Noroeste 0 1009.6 -- 92
2020-08-28 03:00:00 21.3 3 Sur 5 Sudoeste 0 1010.1 -- 94
2020-08-28 02:00:00 21.6 0 Calma 5 Oeste 0 1010.7 -- 92
2020-08-28 01:00:00 21.8 0 Calma 5 Nordeste 0 1011.4 -- 88
2020-08-28 00:00:00 21.9 4 Este 8 Este 0 1011.9 -- 89
2020-08-27 23:00:00 22.1 6 Sudeste 9 Este 0 1012.1 -- 86
2020-08-27 22:00:00 22.6 3 Oeste 11 Noroeste 0 1012.9 -- 85
2020-08-27 21:00:00 22.8 9 Noroeste 18 Noroeste 0 1012.9 -- 84
2020-08-27 20:00:00 23.2 10 Noroeste 18 Noroeste 0 1013.1 -- 81
2020-08-27 19:00:00 23.7 13 Noroeste 24 Noroeste 0 1013.3 -- 78
2020-08-27 18:00:00 24 10 Noroeste 26 Noroeste 0 1013.6 -- 78
2020-08-27 17:00:00 24 18 Noroeste 33 Noroeste 0 1013.8 -- 79
2020-08-27 16:00:00 25.5 19 Noroeste 39 Noroeste 0 1014 -- 72
2020-08-27 15:00:00 27.2 22 Noroeste 37 Oeste 0 1014.2 -- 68
2020-08-27 14:00:00 27.9 21 Noroeste 37 Noroeste 0 1014.2 -- 64
2020-08-27 13:00:00 30 11 Noroeste 32 Noroeste 0 1013.6 -- 50
2020-08-27 12:00:00 28.1 4 Norte 11 Norte 0 1013.8 -- 57
2020-08-27 11:00:00 25.8 7 Este 17 Este 0 1013.9 -- 68
2020-08-27 10:00:00 22.4 8 Sudeste 13 Este 0 1014.6 -- 80
2020-08-27 09:00:00 20.1 8 Este 17 Este 0 1014.6 -- 90
2020-08-27 08:00:00 18.1 10 Este 13 Este 0 1014.7 -- 96
2020-08-27 07:00:00 18.3 6 Nordeste 11 Nordeste 0 1014.8 -- 96
2020-08-27 06:00:00 18.5 4 Este 9 Este 0 1014.8 -- 96
2020-08-27 05:00:00 18.4 7 Este 9 Este 0 1015.2 -- 96
2020-08-27 04:00:00 18.9 7 Este 8 Este 0 1015.1 -- 95
2020-08-27 03:00:00 19.4 8 Este 11 Este 0 1015.4 -- 95
2020-08-27 02:00:00 19.6 9 Este 11 Este 0 1015.9 -- 95
2020-08-27 01:00:00 20.5 8 Este 9 Este 0 1016.3 -- 92
2020-08-27 00:00:00 21.6 4 Este 9 Nordeste 0 1016.9 -- 90
2020-08-26 23:00:00 22 4 Este 9 Noroeste 0 1017.1 -- 89
2020-08-26 22:00:00 22.5 6 Oeste 18 Oeste 0 1016.6 -- 89
2020-08-26 21:00:00 23.4 13 Oeste 22 Oeste 0 1015.9 -- 84
2020-08-26 20:00:00 25.5 14 Oeste 21 Oeste 0 1015.4 -- 73
2020-08-26 19:00:00 26.9 10 Norte 22 Nordeste 0 1015.5 -- 62
2020-08-26 18:00:00 27.7 12 Nordeste 22 Norte 0 1015.5 -- 58
2020-08-26 17:00:00 28.4 13 Nordeste 22 Norte 0 1015.5 -- 57
2020-08-26 16:00:00 28.7 12 Nordeste 22 Norte 0 1015.7 -- 55
2020-08-26 15:00:00 27.3 13 Nordeste 28 Norte 0 1015.9 -- 65
2020-08-26 14:00:00 27.8 16 Norte 28 Norte 0 1016 -- 61
2020-08-26 13:00:00 27.4 5 Nordeste 15 Este 0 1016.2 -- 60
2020-08-26 12:00:00 26.7 9 Nordeste 15 Nordeste 0 1016.4 -- 63
2020-08-26 11:00:00 26 6 Este 13 Este 0 1016.4 -- 64
2020-08-26 10:00:00 23.3 3 Sur 9 Este 0 1016.2 -- 77
2020-08-26 09:00:00 21.5 8 Este 11 Sudeste 0 1016 -- 84
2020-08-26 08:00:00 21 5 Este 11 Nordeste 0 1015.7 -- 86
2020-08-26 07:00:00 21.1 4 Este 8 Este 0 1015.2 -- 86
2020-08-26 06:00:00 21.2 0 Calma 11 Este 0 1015 -- 86
2020-08-26 05:00:00 21.4 4 Sudeste 11 Sudeste 0 1014.8 -- 85
2020-08-26 04:00:00 21.7 5 Este 13 Sudeste 0 1014.9 -- 83
2020-08-26 03:00:00 21.8 6 Sudeste 13 Sudeste 0 1015.2 -- 84
2020-08-26 02:00:00 21.8 6 Este 9 Este 0 1015.5 -- 85
2020-08-26 01:00:00 21.8 6 Sudeste -- -- 0 1015.8 -- 85
2020-08-26 00:00:00 21.9 0 Calma 8 Sudeste 0 1015.8 -- 83
2020-08-25 23:00:00 22.3 4 Nordeste 13 Nordeste 0 1015.8 -- 81
2020-08-25 22:00:00 22.4 0 Calma 11 Oeste 0 1015.4 -- 79
2020-08-25 21:00:00 22.6 7 Noroeste 21 Noroeste 0 1014.6 1.5 78
2020-08-25 20:00:00 24.2 13 Noroeste 26 Norte 0 1013.9 -- 71
2020-08-25 19:00:00 25.9 16 Noroeste 28 Oeste 0 1013.5 -- 58
2020-08-25 18:00:00 26.8 15 Noroeste 28 Oeste 0 1013.1 -- 53
2020-08-25 17:00:00 27.1 16 Noroeste 28 Noroeste 0 1012.5 -- 53
2020-08-25 16:00:00 26.8 18 Noroeste 33 Noroeste 0 1012.2 -- 56
2020-08-25 15:00:00 27.6 22 Noroeste 30 Noroeste 0 1012.1 -- 47
2020-08-25 14:00:00 27.6 17 Noroeste 30 Oeste 0 1011.9 -- 48
2020-08-25 13:00:00 27.4 17 Noroeste 26 Noroeste 0 1011.8 -- 49
2020-08-25 12:00:00 27.4 17 Noroeste 26 Noroeste 0 1011.4 -- 55
2020-08-25 11:00:00 26.2 5 Sudeste 9 Sur 0 1010.7 -- 50
2020-08-25 10:00:00 22.8 4 Este 9 Este 0 1010.4 -- 62
2020-08-25 09:00:00 19.3 5 Este 18 Este 0 1010.2 -- 75
2020-08-25 08:00:00 16.5 11 Nordeste 15 Nordeste 0 1009.5 -- 85
2020-08-25 07:00:00 16.9 6 Este 13 Nordeste 0 1008.9 -- 83
2020-08-25 06:00:00 16.3 8 Este 11 Este 0 1008.7 -- 87
2020-08-25 05:00:00 16 5 Nordeste 13 Sudeste 0 1008.5 -- 91
2020-08-25 04:00:00 16.5 4 Sur 15 Sudeste 0 1008.9 -- 90
2020-08-25 03:00:00 16.8 5 Este 8 Sudeste 0 1009.4 -- 89
2020-08-25 02:00:00 17.1 6 Nordeste 11 Este 0 1009.9 -- 87
2020-08-25 01:00:00 17.7 4 Nordeste 9 Sudeste 0 1010.3 -- 85
2020-08-25 00:00:00 18 7 Sudeste 11 Este 0 1010.7 -- 82
2020-08-24 23:00:00 19.2 4 Este 17 Este 0 1011.2 -- 77
2020-08-24 22:00:00 20.5 6 Nordeste 18 Este 0 1011.3 -- 71
2020-08-24 21:00:00 22 14 Este 22 Este 0 1011.3 -- 63
2020-08-24 20:00:00 24.6 11 Nordeste 22 Nordeste 0 1011.5 -- 58
2020-08-24 19:00:00 26 15 Este 24 Este 0 1011.6 -- 54
2020-08-24 18:00:00 26.8 14 Este 28 Norte 0 1012.3 -- 51
2020-08-24 17:00:00 26.8 16 Nordeste 30 Nordeste 0 1012.8 -- 51
2020-08-24 16:00:00 27.1 15 Nordeste 24 Nordeste 0 1013.7 -- 48
2020-08-24 15:00:00 26.5 12 Este 22 Este 0 1014.7 -- 48
2020-08-24 14:00:00 26 11 Nordeste 22 Nordeste 0 1015.3 -- 47
2020-08-24 13:00:00 24.2 10 Norte 22 Nordeste 0 1016.3 -- 55
2020-08-24 12:00:00 23.1 8 Nordeste 18 Nordeste 0 1017 -- 58
2020-08-24 11:00:00 22 3 Sudoeste 11 Sudeste 0 1017.5 -- 66
2020-08-24 10:00:00 19.5 3 Norte 15 Este 0 1017.7 -- 77
2020-08-24 09:00:00 17 9 Este 15 Este 0 1017.5 -- 87
2020-08-24 08:00:00 14.6 9 Este 17 Nordeste 0 1017.5 -- 95
2020-08-24 07:00:00 15 8 Este 13 Este 0 1017.4 -- 94
2020-08-24 06:00:00 15.4 4 Este 11 Este 0 1017.7 -- 94
2020-08-24 05:00:00 15.1 7 Este 15 Este 0 1017.7 -- 95
2020-08-24 04:00:00 15.5 8 Este 11 Este 0 1017.8 -- 94
2020-08-24 03:00:00 16.2 6 Este 11 Este 0 1018 -- 92
2020-08-24 02:00:00 17.2 7 Este 11 Sudeste 0 1018.6 -- 88
2020-08-24 01:00:00 18.3 7 Sudeste 9 Este 0 1018.9 -- 86
2020-08-24 00:00:00 18.3 5 Este 8 Sudeste 0 1019 -- 86
2020-08-23 23:00:00 18.7 4 Sudeste 5 Sur 0 1019.3 -- 83
2020-08-23 22:00:00 19.7 6 Oeste 11 Noroeste 0 1019.2 -- 79
2020-08-23 21:00:00 21 6 Norte 18 Norte 0 1018.4 -- 72
2020-08-23 20:00:00 22.2 12 Norte 22 Norte 0 1018.6 -- 66
2020-08-23 19:00:00 22.8 13 Norte 24 Norte 0 1018.8 -- 60
2020-08-23 18:00:00 23.3 15 Norte 22 Norte 0 1018.7 -- 58
2020-08-23 17:00:00 23.2 12 Norte 30 Norte 0 1019.1 -- 61
2020-08-23 16:00:00 24.5 15 Norte 26 Norte 0 1019.4 -- 58
2020-08-23 15:00:00 24.8 16 Norte 28 Norte 0 1019.8 -- 55
2020-08-23 14:00:00 24.3 17 Norte 28 Norte 0 1020.1 -- 54
2020-08-23 13:00:00 23.7 4 Este 18 Noroeste 0 1020.6 -- 55
2020-08-23 12:00:00 23 7 Noroeste 15 Oeste 0 1021 -- 61
2020-08-23 11:00:00 21.5 3 Este 9 Nordeste 0 1020.9 -- 74
2020-08-23 10:00:00 18.3 0 Calma 11 Este 0 1021.3 -- 98
2020-08-23 09:00:00 16.4 8 Este 13 Este 0 1021 -- 99
2020-08-23 08:00:00 15.8 8 Este 11 Este 0 1020.8 -- 99
2020-08-23 07:00:00 15.4 4 Este 5 Este 0 1020.6 -- 98
2020-08-23 06:00:00 15.8 2 Sudeste 8 Nordeste 0 1020.6 -- 98
2020-08-23 05:00:00 16.4 4 Nordeste 5 Nordeste 0 1020.7 -- 97
2020-08-23 04:00:00 17.2 3 Nordeste 9 Sudeste 0 1021 -- 97
2020-08-23 03:00:00 18.2 3 Sudeste 5 Nordeste 0 1021.1 -- 96
2020-08-23 02:00:00 18.8 0 Calma 5 Este 0 1021.3 -- 95
2020-08-23 01:00:00 19.1 0 Calma 5 Sudoeste 0.1 1021.4 -- 92
2020-08-23 00:00:00 19.3 0 Calma 8 Noroeste 0 1021.5 -- 90
2020-08-22 23:00:00 19.7 4 Oeste 9 Oeste 0 1021.5 -- 88
2020-08-22 22:00:00 19.8 9 Noroeste 15 Oeste 0 1021.3 -- 90
2020-08-22 21:00:00 20.6 0 Calma 13 Norte 0.1 1020.7 -- 85
2020-08-22 20:00:00 21.4 9 Noroeste 17 Noroeste 0 1020.4 -- 77
2020-08-22 19:00:00 21.7 11 Noroeste 18 Noroeste 0 1020.2 -- 73
2020-08-22 18:00:00 22.2 15 Noroeste 24 Norte 0 1020 -- 71
2020-08-22 17:00:00 22.7 14 Norte 26 Norte 0 1020.2 -- 67
2020-08-22 16:00:00 22.8 15 Noroeste 30 Noroeste 0 1020.5 -- 67
2020-08-22 15:00:00 22.9 17 Noroeste 26 Noroeste 0 1020.2 -- 70
2020-08-22 14:00:00 23.7 17 Noroeste 26 Norte 0 1020.1 -- 70
2020-08-22 13:00:00 23.1 16 Noroeste 22 Noroeste 0 1020 -- 72
2020-08-22 12:00:00 24 12 Noroeste 21 Noroeste 0 1019.9 -- 68
2020-08-22 11:00:00 21.6 5 Oeste 11 Oeste 0 1019.6 -- 77
2020-08-22 10:00:00 20.4 2 Noroeste 8 Oeste 0 1019.5 -- 81
2020-08-22 09:00:00 17 6 Este 13 Este 0 1019.2 -- 97
2020-08-22 08:00:00 16.3 8 Este 13 Este 0 1018.9 -- 99
2020-08-22 07:00:00 16.1 5 Sudeste 9 Sudeste 0 1018.5 -- 99
2020-08-22 06:00:00 16.5 6 Sudeste 13 Este 0 1017.9 -- 99
2020-08-22 05:00:00 16.3 8 Este 11 Este 0 1017.5 -- 97
2020-08-22 04:00:00 17.2 4 Este 8 Este 0 1017.3 -- 95
2020-08-22 03:00:00 17.8 4 Este -- -- 0 1016.9 -- 94
2020-08-22 02:00:00 18.7 5 Sudeste 8 Sudeste 0 1016.7 -- 92
2020-08-22 01:00:00 20 5 Este 8 Sudeste 0 1016.6 -- 87
2020-08-22 00:00:00 20.4 0 Calma 9 Sudeste 0 1016.6 -- 85
2020-08-21 23:00:00 20.7 3 Sudeste 8 Sudeste 0 1016.3 -- 83
2020-08-21 22:00:00 20.8 5 Sudeste 8 Sudeste 0 1015.5 -- 81
2020-08-21 21:00:00 21.2 4 Sur 11 Nordeste 0 1014.3 -- 76
2020-08-21 20:00:00 21.9 12 Nordeste 21 Norte 0 1013.7 -- 73
2020-08-21 19:00:00 22.6 10 Nordeste 24 Nordeste 0 1013 -- 69
2020-08-21 18:00:00 23 13 Este 24 Nordeste 0 1012.7 -- 69
2020-08-21 17:00:00 23.7 12 Nordeste 21 Nordeste 0 1012.2 -- 68
2020-08-21 16:00:00 24.3 10 Nordeste 21 Nordeste 0 1011.8 -- 65
2020-08-21 15:00:00 24.3 6 Nordeste 24 Nordeste 0 1011.7 -- 66
2020-08-21 14:00:00 23.4 15 Nordeste 24 Nordeste 0 1011.2 -- 71
2020-08-21 13:00:00 23.9 14 Nordeste 24 Norte 0 1010.7 -- 76
2020-08-21 12:00:00 23.6 11 Norte 21 Norte 0 1010.3 -- 83
2020-08-21 11:00:00 23.8 9 Norte 13 Norte 0 1009.7 -- 83
2020-08-21 10:00:00 23 3 Sudeste 8 Este 0 1009.1 -- 88
2020-08-21 09:00:00 22.2 2 Oeste 8 Oeste 0 1008.7 -- 91
2020-08-21 08:00:00 21.9 0 Calma 9 Norte 0 1007.9 -- 91
2020-08-21 07:00:00 21.9 4 Noroeste 11 Norte 0 1007.2 -- 91
2020-08-21 06:00:00 21.9 0 Calma 11 Oeste 0 1006.7 -- 91
2020-08-21 05:00:00 21.8 4 Oeste 13 Oeste 0 1006.1 -- 94
2020-08-21 04:00:00 22.6 9 Oeste 17 Noroeste 0 1005.2 -- 84
2020-08-21 03:00:00 22 11 Sudeste 18 Sudeste 0.1 1004.9 -- 88
2020-08-21 02:00:00 22.6 6 Sudeste 21 Este 0.2 1004.9 -- 85
2020-08-21 01:00:00 23.2 12 Este 18 Este 0 1004 -- 78
2020-08-21 00:00:00 22.7 12 Este 17 Este 0 1004 -- 88
2020-08-20 23:00:00 22.8 5 Sudeste 21 Noroeste 0 1003.5 -- 87
2020-08-20 22:00:00 22.7 10 Noroeste 17 Noroeste 0 1002.8 -- 87
2020-08-20 21:00:00 23.1 8 Oeste 22 Oeste 0 1001.1 -- 83
2020-08-20 20:00:00 24.2 17 Oeste 26 Oeste 0 1000.5 -- 76
2020-08-20 19:00:00 25.1 13 Oeste 24 Oeste 0 999.9 -- 72
2020-08-20 18:00:00 26.9 16 Oeste 30 Oeste 0 999.6 -- 65
2020-08-20 17:00:00 28.2 18 Oeste 30 Oeste 0 999.9 -- 60
2020-08-20 16:00:00 28.3 26 Oeste 39 Oeste 0 1000.1 -- 59
2020-08-20 15:00:00 32.3 25 Oeste 39 Oeste 0 1000.1 -- 43
2020-08-20 14:00:00 35.2 18 Sur -- -- -- 1000.3 -- 16
2020-08-20 13:00:00 -- -- -- -- -- -- -- -- --
2020-08-20 12:00:00 28 3 Oeste 24 Nordeste 0 1001.1 -- 43
2020-08-20 11:00:00 25.8 6 Nordeste 21 Sur 0 1001.6 -- 49
2020-08-20 10:00:00 24.6 8 Sudeste 21 Este 0 1001.5 -- 53
2020-08-20 09:00:00 23 11 Sudeste 17 Sudeste 0 1001.7 -- 71
2020-08-20 08:00:00 21.8 7 Este 21 Este 0 1001.8 -- 79
2020-08-20 07:00:00 22.2 14 Este 28 Este 0 1001.7 -- 82
2020-08-20 06:00:00 22 12 Este 17 Este 0 1001.8 -- 89
2020-08-20 05:00:00 22.1 9 Sudeste 11 Sudeste 0 1002.5 -- 85
2020-08-20 04:00:00 22.7 2 Sudoeste 18 Noroeste 0 1002.8 -- 86
2020-08-20 03:00:00 23.1 13 Noroeste 30 Noroeste 0 1003.1 -- 85
2020-08-20 02:00:00 23.5 20 Oeste 45 Noroeste 0 1003 -- 77
2020-08-20 01:00:00 20.2 2 Oeste 17 Este 0 1000.3 -- 55
2020-08-20 00:00:00 21 11 Este 13 Este 0 999.8 -- 50
2020-08-19 23:00:00 23.3 7 Este 18 Este 0 999.1 -- 42
2020-08-19 22:00:00 25.4 8 Este 13 Este 0 998.8 -- 39
2020-08-19 21:00:00 31.9 6 Nordeste 13 Sudoeste 0 998 -- 24
2020-08-19 20:00:00 36.9 6 Sudoeste 26 Sudoeste 0 997.9 -- 12
2020-08-19 19:00:00 37.1 20 Sudoeste 37 Sudoeste 0 998.4 -- 12
2020-08-19 18:00:00 37.2 18 Sudoeste 41 Sur 0 999.1 -- 14
2020-08-19 17:00:00 36.9 25 Sudoeste 45 Sudoeste 0 999.6 -- 15
2020-08-19 16:00:00 36.2 26 Sudoeste 46 Oeste 0 1000.1 -- 17
2020-08-19 15:00:00 35.7 23 Sudoeste 46 Sudoeste 0 1000.4 -- 18
2020-08-19 14:00:00 34.8 20 Sur 41 Sur 0 1000.9 -- 20
2020-08-19 13:00:00 33.3 17 Sur 35 Sur 0 1001.6 -- 25
2020-08-19 12:00:00 31.4 16 Sur 48 Sur 0 1002.4 -- 27
2020-08-19 11:00:00 30.7 9 Sudeste 42 Sudoeste 0 1002.7 -- 32
2020-08-19 10:00:00 28.7 3 Sur 17 Sur 0 1002.7 -- 38
2020-08-19 09:00:00 25.8 9 Sudeste 17 Sudeste 0 1002.9 -- 48
2020-08-19 08:00:00 22.4 2 Sudeste 11 Sudeste 0 1003.1 -- 68
2020-08-19 07:00:00 23.4 2 Oeste 24 Sudeste 0 1003.2 -- 64
2020-08-19 06:00:00 23.7 11 Sur 17 Sur 0 1003.4 -- 65
2020-08-19 05:00:00 24.6 5 Este 28 Sur 0 1004.1 -- 63
2020-08-19 04:00:00 25.4 15 Sur 33 Sur 0 1004.3 -- 61
2020-08-19 03:00:00 24.9 11 Sudeste 26 Sur 0 1005 -- 63
2020-08-19 02:00:00 22 13 Este 21 Sudeste 0 1005.6 -- 78
2020-08-19 01:00:00 23 6 Este 17 Este 0 1006.2 -- 73
2020-08-19 00:00:00 22.4 9 Este 15 Sudeste 0 1006.8 -- 76